Time;durP1;ratioP1;P1;durP2;ratioP2;P2;SDS_P1;SDS_P2;PMS_P1;PMS_P2;Temp;Humidity;BMP_temperature;BMP_pressure;BME280_temperature;BME280_humidity;BME280_pressure;Samples;Min_cycle;Max_cycle;Signal;HPM_P1;HPM_P2
2022/01/27 00:00:42;;;;;;;31.60;23.90;;;;;;;1.97;75.40;101009.55;109202;1270;21984;-82
2022/01/27 00:03:30;;;;;;;29.90;21.90;;;;;;;1.97;75.46;101008.68;109134;1270;22045;-82
2022/01/27 00:06:12;;;;;;;32.80;23.00;;;;;;;1.98;75.51;101009.17;109350;1270;22047;-83
2022/01/27 00:08:53;;;;;;;32.70;25.60;;;;;;;1.98;75.53;101009.02;109288;1271;21986;-82
2022/01/27 00:11:37;;;;;;;29.60;22.80;;;;;;;1.98;75.62;100997.88;109161;1270;23634;-81
2022/01/27 00:14:07;;;;;;;27.60;22.40;;;;;;;1.99;75.65;100987.00;108980;1270;22043;-83
2022/01/27 00:16:44;;;;;;;28.50;22.10;;;;;;;2.00;75.68;100981.92;109552;1263;21989;-82
2022/01/27 00:19:17;;;;;;;32.50;22.40;;;;;;;1.99;75.66;100978.55;109373;1271;21999;-84
2022/01/27 00:22:10;;;;;;;28.00;21.70;;;;;;;1.99;75.71;100977.30;109390;1270;22470;-84
2022/01/27 00:24:57;;;;;;;29.30;22.00;;;;;;;1.99;75.84;100981.63;109475;1270;22012;-82
2022/01/27 00:27:39;;;;;;;26.50;20.50;;;;;;;1.99;75.84;100989.61;109618;1270;22096;-83
2022/01/27 00:30:14;;;;;;;29.60;22.40;;;;;;;2.01;75.96;100989.66;109535;1270;22006;-83
2022/01/27 00:33:01;;;;;;;30.30;23.10;;;;;;;2.03;75.95;100995.83;109748;1267;22487;-84
2022/01/27 00:35:37;;;;;;;27.90;21.80;;;;;;;2.04;76.02;100992.80;109547;1270;22090;-83
2022/01/27 00:38:32;;;;;;;26.10;21.50;;;;;;;2.04;76.06;100991.91;109662;1267;22485;-83
2022/01/27 00:41:09;;;;;;;26.00;20.60;;;;;;;2.06;76.11;100990.23;109350;1273;22006;-83
2022/01/27 00:43:50;;;;;;;24.30;20.60;;;;;;;2.07;76.23;100993.26;109155;1273;22052;-82
2022/01/27 00:46:36;;;;;;;24.80;19.70;;;;;;;2.09;76.21;100989.66;109163;1273;22026;-82
2022/01/27 00:49:11;;;;;;;26.20;21.70;;;;;;;2.10;76.30;100992.09;109105;1275;22481;-82
2022/01/27 00:52:03;;;;;;;24.30;21.50;;;;;;;2.10;76.25;100988.39;109285;1273;23366;-83
2022/01/27 00:54:41;;;;;;;23.60;20.80;;;;;;;2.10;76.16;100988.39;109009;1277;22069;-82
2022/01/27 00:58:03;;;;;;;25.20;21.20;;;;;;;2.10;76.23;100987.02;108942;1276;21998;-83
2022/01/27 01:00:33;;;;;;;23.50;20.30;;;;;;;2.10;76.31;100984.21;109433;1268;21945;-82
2022/01/27 01:03:35;;;;;;;27.00;20.20;;;;;;;2.10;76.37;100981.61;109523;1270;22143;-84
2022/01/27 01:14:41;;;;;;;25.10;19.80;;;;;;;2.13;76.39;100959.40;109670;1261;21982;-83
2022/01/27 01:17:59;;;;;;;23.20;19.80;;;;;;;2.12;76.56;100955.63;110365;1260;23628;-84
2022/01/27 01:20:31;;;;;;;28.70;21.70;;;;;;;2.12;76.56;100958.71;110399;1261;22396;-83
2022/01/27 01:30:44;;;;;;;;;;;;;;;;;;;;;
2022/01/27 01:33:43;;;;;;;28.30;21.60;;;;;;;2.10;76.76;100961.30;110655;1261;21992;-85
2022/01/27 01:36:26;;;;;;;27.70;22.20;;;;;;;2.15;76.82;100959.08;110043;1262;23948;-85
2022/01/27 01:39:50;;;;;;;;;;;;;;;2.16;76.73;100957.24;110341;1262;21981;-86
2022/01/27 01:42:57;;;;;;;;;;;;;;;;;;;;;
2022/01/27 01:45:56;;;;;;;29.10;22.70;;;;;;;2.10;76.92;100952.97;109922;1262;21981;-88
2022/01/27 01:49:31;;;;;;;;;;;;;;;;;;;;;
2022/01/27 01:53:02;;;;;;;28.90;24.60;;;;;;;2.16;76.93;100950.84;110442;1261;21946;-86
2022/01/27 01:55:59;;;;;;;;;;;;;;;;;;;;;
2022/01/27 01:59:11;;;;;;;;;;;;;;;;;;;;;
2022/01/27 02:02:19;;;;;;;35.70;27.00;;;;;;;2.20;76.80;100934.80;109031;1273;23512;-85
2022/01/27 02:05:06;;;;;;;37.50;29.50;;;;;;;2.22;76.87;100938.67;109126;1270;22084;-83
2022/01/27 02:08:50;;;;;;;36.20;29.80;;;;;;;2.23;76.83;100934.08;109128;1270;21984;-82
2022/01/27 02:18:22;;;;;;;44.70;31.90;;;;;;;2.13;77.04;100906.00;108184;1285;23162;-82
2022/01/27 02:22:21;;;;;;;39.30;30.90;;;;;;;2.15;77.07;100902.27;108014;1285;21997;-82
2022/01/27 02:25:17;;;;;;;;;;;;;;;;;;;;;
2022/01/27 02:28:40;;;;;;;;;;;;;;;;;;;;;
2022/01/27 02:32:13;;;;;;;;;;;;;;;2.18;77.24;100899.46;108511;1282;21959;-83
2022/01/27 02:35:51;;;;;;;40.70;30.10;;;;;;;2.15;77.47;100904.17;108505;1282;22016;-82
2022/01/27 02:38:44;;;;;;;46.00;33.90;;;;;;;2.20;77.33;100904.71;108440;1282;22019;-81
2022/01/27 02:42:35;;;;;;;48.10;33.20;;;;;;;2.22;77.22;100906.32;108601;1279;22008;-84
2022/01/27 02:46:30;;;;;;;;;;;;;;;;;;;;;
2022/01/27 02:49:47;;;;;;;;;;;;;;;;;;;;;
2022/01/27 02:52:47;;;;;;;46.40;35.30;;;;;;;2.15;77.30;100901.76;108860;1276;23085;-84
2022/01/27 02:56:03;;;;;;;40.90;31.80;;;;;;;2.14;77.43;100899.18;108843;1276;22007;-82
2022/01/27 02:59:06;;;;;;;44.90;33.50;;;;;;;2.14;77.35;100897.46;108572;1280;23612;-83
2022/01/27 03:02:34;;;;;;;;;;;;;;;;;;;;;
2022/01/27 03:06:19;;;;;;;;;;;;;;;;;;;;;
2022/01/27 03:09:43;;;;;;;;;;;;;;;;;;;;;
2022/01/27 03:13:07;;;;;;;42.90;31.60;;;;;;;2.05;77.60;100878.19;108878;1279;22409;-83
2022/01/27 03:19:38;;;;;;;;;;;;;;;;;;;;;
2022/01/27 03:22:51;;;;;;;40.40;30.60;;;;;;;2.14;77.64;100855.90;108282;1285;22558;-83
2022/01/27 03:25:40;;;;;;;;;;;;;;;;;;;;;
2022/01/27 03:28:50;;;;;;;;;;;;;;;;;;;;;
2022/01/27 03:31:45;;;;;;;;;;;;;;;;;;;;;
2022/01/27 03:34:34;;;;;;;41.10;32.00;;;;;;;2.21;77.45;100842.95;108256;1284;23794;-85
2022/01/27 03:37:42;;;;;;;40.00;31.80;;;;;;;2.22;77.41;100837.85;108753;1279;22050;-84
2022/01/27 03:40:47;;;;;;;40.40;31.50;;;;;;;2.23;77.53;100830.85;108829;1273;21991;-82
2022/01/27 03:44:19;;;;;;;38.40;31.70;;;;;;;2.25;77.37;100828.29;109202;1266;23081;-84
2022/01/27 03:47:44;;;;;;;41.10;33.00;;;;;;;2.26;77.41;100832.21;109121;1270;22022;-84
2022/01/27 03:50:50;;;;;;;44.10;33.10;;;;;;;2.29;77.52;100825.02;109221;1270;22865;-82
2022/01/27 03:53:59;;;;;;;40.60;33.10;;;;;;;2.29;77.31;100821.93;109740;1261;24345;-83
2022/01/27 03:56:55;;;;;;;40.50;32.80;;;;;;;2.28;77.29;100823.52;109925;1263;22439;-81
2022/01/27 04:00:00;;;;;;;45.00;34.60;;;;;;;2.28;77.25;100819.91;109511;1267;22058;-83
2022/01/27 04:03:30;;;;;;;45.00;34.30;;;;;;;2.26;77.25;100816.19;109612;1267;21988;-81
2022/01/27 04:06:37;;;;;;;46.60;35.50;;;;;;;2.24;77.22;100812.86;109385;1270;22115;-83
2022/01/27 04:10:54;;;;;;;;;;;;;;;;;;;;;
2022/01/27 04:14:17;;;;;;;47.30;34.90;;;;;;;2.21;77.25;100810.64;108677;1282;22305;-85
2022/01/27 04:17:47;;;;;;;;;;;;;;;;;;;;;
2022/01/27 04:21:32;;;;;;;;;;;;;;;;;;;;;
2022/01/27 04:24:54;;;;;;;43.80;34.80;;;;;;;2.22;77.24;100792.17;108820;1282;23048;-87
2022/01/27 04:28:23;;;;;;;;;;;;;;;;;;;;;
2022/01/27 04:32:09;;;;;;;44.80;34.80;;;;;;;2.22;77.27;100776.52;108801;1279;22132;-85
2022/01/27 04:35:58;;;;;;;;;;;;;;;;;;;;;
2022/01/27 04:42:05;;;;;;;;;;;;;;;;;;;;;
2022/01/27 04:49:08;;;;;;;49.80;35.10;;;;;;;2.31;77.24;100759.04;108707;1279;23604;-85
2022/01/27 04:52:17;;;;;;;47.70;35.80;;;;;;;2.32;77.18;100761.02;108927;1274;23714;-86
2022/01/27 04:55:19;;;;;;;45.60;33.70;;;;;;;2.37;77.26;100760.73;109077;1270;23110;-82
2022/01/27 04:58:58;;;;;;;;;;;;;;;;;;;;;
2022/01/27 05:03:12;;;;;;;;;;;;;;;;;;;;;
2022/01/27 05:12:09;;;;;;;;;;;;;;;;;;;;;
2022/01/27 05:15:20;;;;;;;41.00;31.20;;;;;;;2.31;77.19;100741.79;108355;1285;22007;-83
2022/01/27 05:18:15;;;;;;;;;;;;;;;;;;;;;
2022/01/27 05:20:54;;;;;;;39.90;30.50;;;;;;;2.32;77.11;100731.81;107625;1291;23733;-82
2022/01/27 05:23:38;;;;;;;39.70;30.30;;;;;;;2.35;77.20;100737.00;107511;1291;21998;-81
2022/01/27 05:26:26;;;;;;;36.60;29.30;;;;;;;2.37;77.10;100738.08;107419;1291;22808;-84
2022/01/27 05:29:09;;;;;;;37.40;28.60;;;;;;;2.39;77.07;100744.27;107626;1291;23079;-83
2022/01/27 05:31:46;;;;;;;36.20;28.60;;;;;;;2.41;77.08;100747.24;107488;1291;22097;-83
2022/01/27 05:34:51;;;;;;;37.30;29.80;;;;;;;2.44;77.00;100743.21;107524;1291;22008;-85
2022/01/27 05:37:45;;;;;;;;;;;;;;;;;;;;;
2022/01/27 05:40:39;;;;;;;40.60;29.10;;;;;;;2.43;76.85;100726.18;108083;1285;22826;-83
2022/01/27 05:43:34;;;;;;;39.50;30.60;;;;;;;2.43;76.76;100715.94;107757;1291;23105;-84
2022/01/27 05:46:19;;;;;;;36.50;28.80;;;;;;;2.43;76.84;100711.48;107148;1293;22082;-86
2022/01/27 05:48:57;;;;;;;36.30;28.90;;;;;;;2.42;76.77;100705.42;107603;1290;22363;-84
2022/01/27 05:51:36;;;;;;;38.30;28.50;;;;;;;2.41;76.76;100698.72;108157;1281;23676;-84
2022/01/27 05:54:10;;;;;;;37.70;28.90;;;;;;;2.40;76.80;100696.55;108382;1281;22012;-84
2022/01/27 05:56:54;;;;;;;37.00;28.90;;;;;;;2.39;76.80;100696.23;108566;1279;23049;-83
2022/01/27 05:59:33;;;;;;;;;;;;;;;2.40;76.79;100695.84;108712;1276;22569;-84
2022/01/27 06:02:23;;;;;;;35.20;28.40;;;;;;;2.34;77.01;100697.27;108848;1270;21985;-83
2022/01/27 06:05:34;;;;;;;37.90;28.80;;;;;;;2.34;77.03;100698.64;108861;1273;22000;-83
2022/01/27 06:08:39;;;;;;;36.70;28.30;;;;;;;2.35;77.03;100701.71;108383;1280;22002;-83
2022/01/27 06:11:35;;;;;;;;;;;;;;;;;;;;;
2022/01/27 06:14:33;;;;;;;;;;;;;;;2.41;77.07;100696.27;108498;1282;23740;-82
2022/01/27 06:17:29;;;;;;;37.50;27.40;;;;;;;2.34;76.99;100691.03;108566;1282;22039;-82
2022/01/27 06:20:19;;;;;;;36.70;29.00;;;;;;;2.29;77.04;100685.11;108279;1285;22020;-83
2022/01/27 06:23:36;;;;;;;;;;;;;;;;;;;;;
2022/01/27 06:26:35;;;;;;;36.80;29.70;;;;;;;2.32;77.15;100673.98;108644;1276;21982;-80
2022/01/27 06:29:15;;;;;;;41.30;29.80;;;;;;;2.33;77.13;100665.73;108570;1273;22000;-77
2022/01/27 06:32:16;;;;;;;;;;;;;;;;;;;;;
2022/01/27 06:35:41;;;;;;;36.10;28.30;;;;;;;2.43;77.37;100669.05;108776;1273;24455;-77
2022/01/27 06:38:41;;;;;;;33.80;27.20;;;;;;;2.51;77.58;100673.17;108888;1270;23716;-79
2022/01/27 06:41:47;;;;;;;;;;;;;;;;;;;;;
2022/01/27 06:44:37;;;;;;;34.80;26.20;;;;;;;2.63;77.24;100666.42;108578;1275;21987;-78
2022/01/27 06:47:35;;;;;;;35.80;26.30;;;;;;;2.65;77.22;100660.02;108764;1276;23067;-79
2022/01/27 06:50:15;;;;;;;37.60;26.80;;;;;;;2.68;77.09;100660.48;108757;1276;23055;-79
2022/01/27 06:53:15;;;;;;;32.60;24.60;;;;;;;2.73;77.24;100653.00;108660;1275;21992;-79
2022/01/27 06:56:15;;;;;;;34.20;27.30;;;;;;;2.75;76.94;100646.42;108490;1276;21990;-79
2022/01/27 06:59:08;;;;;;;39.60;31.80;;;;;;;2.75;76.92;100641.87;108364;1273;22004;-78
2022/01/27 07:01:47;;;;;;;36.70;27.40;;;;;;;2.79;76.94;100642.45;108508;1273;21994;-79
2022/01/27 07:04:49;;;;;;;29.50;24.10;;;;;;;2.80;76.72;100635.28;108505;1274;22014;-79
2022/01/27 07:07:57;;;;;;;29.20;24.20;;;;;;;2.81;76.80;100634.15;108383;1276;21989;-79
2022/01/27 07:10:38;;;;;;;30.70;24.10;;;;;;;2.86;76.92;100636.24;108292;1279;21964;-81
2022/01/27 07:13:15;;;;;;;29.20;22.90;;;;;;;2.91;76.78;100627.92;108396;1279;23087;-79
2022/01/27 07:16:02;;;;;;;28.00;23.20;;;;;;;2.94;76.55;100621.94;108162;1279;21981;-77
2022/01/27 07:19:00;;;;;;;28.60;23.90;;;;;;;2.93;76.31;100621.97;108504;1276;22108;-78
2022/01/27 07:21:40;;;;;;;29.90;24.70;;;;;;;2.93;76.18;100615.36;108435;1276;22031;-78
2022/01/27 07:24:13;;;;;;;27.60;23.60;;;;;;;2.95;76.35;100609.25;108463;1274;22314;-78
2022/01/27 07:26:53;;;;;;;30.20;24.50;;;;;;;2.95;76.16;100607.74;108581;1273;22014;-78
2022/01/27 07:29:39;;;;;;;37.30;29.30;;;;;;;2.94;75.96;100610.46;108884;1270;22797;-79
2022/01/27 07:32:17;;;;;;;31.40;25.10;;;;;;;2.93;75.97;100603.89;108453;1273;22058;-79
2022/01/27 07:35:04;;;;;;;33.80;23.00;;;;;;;2.94;76.04;100603.81;108595;1273;21990;-78
2022/01/27 07:38:24;;;;;;;;;;;;;;;;;;;;;
2022/01/27 07:41:26;;;;;;;30.00;25.10;;;;;;;3.03;76.26;100600.86;108712;1273;22117;-79
2022/01/27 07:44:02;;;;;;;34.60;27.30;;;;;;;3.09;76.14;100590.86;108424;1279;22002;-80
2022/01/27 07:46:42;;;;;;;29.80;25.10;;;;;;;3.13;76.16;100581.23;107820;1282;22220;-78
2022/01/27 07:49:51;;;;;;;35.80;28.50;;;;;;;3.12;75.74;100575.52;107920;1279;23654;-78
2022/01/27 07:52:45;;;;;;;36.00;25.40;;;;;;;3.11;75.57;100575.79;108225;1278;22049;-77
2022/01/27 07:55:56;;;;;;;30.90;24.80;;;;;;;3.13;75.75;100583.23;108323;1279;22434;-78
2022/01/27 07:59:01;;;;;;;32.30;25.70;;;;;;;3.19;75.92;100586.50;108390;1279;22019;-77
2022/01/27 08:01:41;;;;;;;35.40;28.00;;;;;;;3.22;75.74;100581.71;108458;1273;22620;-77
2022/01/27 08:04:24;;;;;;;35.30;28.50;;;;;;;3.27;75.67;100583.61;108627;1270;22852;-76
2022/01/27 08:06:56;;;;;;;35.90;25.80;;;;;;;3.30;75.46;100581.80;108818;1270;21988;-77
2022/01/27 08:09:43;;;;;;;31.40;25.00;;;;;;;3.31;75.20;100572.52;108941;1270;23050;-77
2022/01/27 08:12:37;;;;;;;;;;;;;;;;;;;;;
2022/01/27 08:15:30;;;;;;;;;;;;;;;3.31;75.07;100560.89;108906;1270;22091;-77
2022/01/27 08:18:17;;;;;;;;;;;;;;;;;;;;;
2022/01/27 08:21:01;;;;;;;27.60;22.50;;;;;;;3.29;75.43;100553.68;108950;1270;21991;-77
2022/01/27 08:23:44;;;;;;;28.00;22.20;;;;;;;3.35;75.26;100546.63;108935;1270;21998;-76
2022/01/27 08:26:29;;;;;;;28.80;21.60;;;;;;;3.40;75.10;100542.74;108572;1276;23067;-86
2022/01/27 08:29:38;;;;;;;;;;;;;;;;;;;;;
2022/01/27 08:32:57;;;;;;;27.90;21.50;;;;;;;3.25;74.25;100536.41;108788;1275;23722;-85
2022/01/27 08:35:58;;;;;;;34.00;22.30;;;;;;;3.08;74.14;100536.63;108782;1276;22019;-85
2022/01/27 08:39:08;;;;;;;31.30;22.60;;;;;;;2.97;74.34;100536.05;108755;1276;22011;-84
2022/01/27 08:41:58;;;;;;;29.80;21.50;;;;;;;2.94;74.44;100537.20;108599;1279;23627;-82
2022/01/27 08:44:39;;;;;;;26.90;22.90;;;;;;;2.92;74.47;100535.27;108638;1273;23052;-82
2022/01/27 08:47:43;;;;;;;30.10;21.50;;;;;;;2.90;74.57;100529.66;108759;1276;22014;-84
2022/01/27 08:50:59;;;;;;;35.40;25.10;;;;;;;2.87;74.59;100520.70;108793;1276;22187;-83
2022/01/27 08:54:03;;;;;;;28.20;21.30;;;;;;;2.84;74.70;100523.64;108830;1273;22014;-83
2022/01/27 08:56:45;;;;;;;29.80;19.30;;;;;;;2.81;74.53;100526.98;108511;1279;22646;-84
2022/01/27 08:59:27;;;;;;;24.60;19.50;;;;;;;2.80;74.63;100525.11;108434;1279;23635;-83
2022/01/27 09:02:15;;;;;;;22.10;18.10;;;;;;;2.83;74.65;100530.85;108676;1279;21992;-84
2022/01/27 09:04:56;;;;;;;22.50;18.80;;;;;;;2.82;74.72;100535.11;108668;1279;22007;-83
2022/01/27 09:08:00;;;;;;;25.90;19.80;;;;;;;2.80;74.69;100537.34;108721;1278;22034;-83
2022/01/27 09:10:49;;;;;;;27.30;20.60;;;;;;;2.82;74.73;100533.90;108738;1279;22013;-83
2022/01/27 09:13:42;;;;;;;28.40;21.80;;;;;;;2.81;74.55;100525.96;108622;1279;22594;-84
2022/01/27 09:16:43;;;;;;;25.00;20.50;;;;;;;2.79;74.58;100514.65;108889;1273;22004;-85
2022/01/27 09:19:40;;;;;;;24.60;18.20;;;;;;;2.74;74.50;100516.88;109166;1270;21992;-83
2022/01/27 09:22:23;;;;;;;28.50;21.00;;;;;;;2.71;74.50;100519.79;109105;1270;23057;-83
2022/01/27 09:25:09;;;;;;;;;;;;;;;;;;;;;
2022/01/27 09:28:04;;;;;;;24.50;19.50;;;;;;;2.75;74.78;100529.70;109190;1270;22349;-83
2022/01/27 09:30:43;;;;;;;27.10;20.80;;;;;;;2.77;74.73;100529.08;109129;1270;23092;-84
2022/01/27 09:33:37;;;;;;;24.80;20.20;;;;;;;2.80;74.67;100516.30;109125;1270;22353;-83
2022/01/27 09:36:18;;;;;;;32.80;24.30;;;;;;;2.78;74.55;100504.11;108712;1276;22457;-84
2022/01/27 09:39:07;;;;;;;60.70;48.50;;;;;;;2.74;74.42;100490.48;108750;1276;23125;-83
2022/01/27 09:42:04;;;;;;;29.80;23.80;;;;;;;2.74;74.49;100478.15;108785;1276;22014;-83
2022/01/27 09:45:03;;;;;;;35.40;28.60;;;;;;;2.72;74.45;100474.81;109140;1270;23816;-84
2022/01/27 09:47:52;;;;;;;45.70;34.10;;;;;;;2.72;74.42;100474.06;109077;1270;21988;-84
2022/01/27 09:50:59;;;;;;;;;;;;;;;;;;;;;
2022/01/27 09:54:01;;;;;;;27.90;21.40;;;;;;;2.79;74.45;100468.70;109130;1270;23066;-84
2022/01/27 09:56:53;;;;;;;26.40;21.30;;;;;;;2.79;74.31;100463.51;109145;1270;22918;-84
2022/01/27 09:59:44;;;;;;;30.20;22.00;;;;;;;2.78;74.30;100455.40;109340;1266;22122;-84
2022/01/27 10:02:26;;;;;;;29.80;23.10;;;;;;;2.78;74.11;100446.67;110154;1259;23749;-84
2022/01/27 10:06:15;;;;;;;29.60;23.50;;;;;;;2.75;74.09;100446.09;110380;1260;21981;-82
2022/01/27 10:09:30;;;;;;;30.60;25.10;;;;;;;2.72;74.09;100437.74;110039;1260;24040;-85
2022/01/27 10:12:46;;;;;;;33.30;25.10;;;;;;;2.69;74.06;100434.66;109760;1264;22032;-84
2022/01/27 10:15:55;;;;;;;30.80;23.20;;;;;;;2.67;74.06;100421.95;109908;1264;21976;-82
2022/01/27 10:18:44;;;;;;;30.50;23.40;;;;;;;2.67;74.14;100415.23;109738;1264;21983;-83
2022/01/27 10:21:47;;;;;;;30.60;24.10;;;;;;;2.64;74.19;100410.16;109919;1264;23059;-83
2022/01/27 10:24:35;;;;;;;35.10;25.00;;;;;;;2.64;74.23;100409.70;109747;1264;21987;-84
2022/01/27 10:27:45;;;;;;;34.20;27.70;;;;;;;2.63;74.38;100408.02;109773;1264;22770;-83
2022/01/27 10:30:53;;;;;;;43.90;29.20;;;;;;;2.64;74.48;100406.37;110187;1259;21974;-83
2022/01/27 10:34:04;;;;;;;;;;;;;;;;;;;;;
2022/01/27 10:37:16;;;;;;;;;;;;;;;;;;;;;
2022/01/27 10:40:12;;;;;;;38.80;32.00;;;;;;;2.64;74.54;100379.08;110171;1259;22035;-84
2022/01/27 10:43:20;;;;;;;39.20;31.50;;;;;;;2.62;74.62;100379.55;110079;1261;21989;-84
2022/01/27 10:46:28;;;;;;;42.70;33.30;;;;;;;2.61;74.84;100375.80;110022;1261;21976;-85
2022/01/27 10:49:16;;;;;;;34.00;26.60;;;;;;;2.60;74.94;100369.98;110263;1259;21974;-85
2022/01/27 10:51:59;;;;;;;36.50;28.30;;;;;;;2.57;74.79;100367.22;109985;1260;21988;-84
2022/01/27 10:54:48;;;;;;;39.30;30.60;;;;;;;2.53;74.93;100366.17;110119;1259;22077;-83
2022/01/27 10:57:27;;;;;;;38.00;28.40;;;;;;;2.53;75.10;100361.86;109884;1259;24136;-84
2022/01/27 11:00:14;;;;;;;30.40;23.40;;;;;;;2.52;75.11;100358.42;109710;1265;21941;-84
2022/01/27 11:03:02;;;;;;;40.50;28.90;;;;;;;2.47;75.05;100352.52;110099;1263;22038;-81
2022/01/27 11:05:50;;;;;;;38.90;31.10;;;;;;;2.45;75.25;100346.95;109776;1262;21992;-83
2022/01/27 11:08:42;;;;;;;39.90;30.60;;;;;;;2.47;75.47;100340.17;109947;1263;21965;-83
2022/01/27 11:11:52;;;;;;;37.90;30.10;;;;;;;2.50;75.54;100339.99;109685;1264;21985;-83
2022/01/27 11:14:36;;;;;;;39.00;29.00;;;;;;;2.50;75.48;100339.11;109637;1263;22083;-83
2022/01/27 11:17:29;;;;;;;36.60;27.90;;;;;;;2.48;75.44;100340.61;109637;1262;22001;-84
2022/01/27 11:20:24;;;;;;;40.50;31.70;;;;;;;2.50;75.58;100333.52;110077;1260;22341;-83
2022/01/27 11:26:23;;;;;;;41.10;32.60;;;;;;;2.52;75.64;100324.30;109998;1259;23680;-85
2022/01/27 11:29:14;;;;;;;41.40;33.70;;;;;;;2.56;75.69;100318.27;109884;1260;22324;-83
2022/01/27 11:32:11;;;;;;;44.50;35.20;;;;;;;2.57;75.56;100313.71;109675;1262;21984;-83
2022/01/27 11:35:22;;;;;;;65.30;51.30;;;;;;;2.56;75.50;100311.52;109978;1262;23033;-84
2022/01/27 11:38:24;;;;;;;37.80;29.60;;;;;;;2.56;75.59;100307.98;109007;1273;22367;-83
2022/01/27 11:41:40;;;;;;;38.90;29.60;;;;;;;2.55;75.54;100300.10;108925;1273;21979;-83
2022/01/27 11:44:36;;;;;;;45.40;31.30;;;;;;;2.54;75.55;100292.91;108738;1279;22011;-85
2022/01/27 11:47:32;;;;;;;45.40;34.10;;;;;;;2.52;75.55;100291.98;108584;1279;23069;-83
2022/01/27 11:50:47;;;;;;;42.30;31.20;;;;;;;2.49;75.47;100290.51;108488;1276;21999;-84
2022/01/27 11:53:48;;;;;;;41.50;32.80;;;;;;;2.49;75.60;100286.00;108755;1277;23097;-84
2022/01/27 11:56:47;;;;;;;47.00;42.00;;;;;;;2.51;75.60;100277.63;108961;1267;22757;-85
2022/01/27 11:59:38;;;;;;;34.60;29.90;;;;;;;2.53;75.59;100274.52;109150;1270;23725;-84
2022/01/27 12:02:14;;;;;;;41.10;33.50;;;;;;;2.52;75.47;100269.23;109058;1270;22014;-83
2022/01/27 12:04:43;;;;;;;47.90;39.00;;;;;;;2.50;75.47;100272.15;109083;1270;21953;-83
2022/01/27 12:07:13;;;;;;;35.70;27.30;;;;;;;2.52;75.56;100266.13;109061;1271;23762;-83
2022/01/27 12:09:45;;;;;;;35.20;25.40;;;;;;;2.51;75.60;100260.41;108743;1273;21984;-83
2022/01/27 12:12:31;;;;;;;32.70;26.70;;;;;;;2.50;75.50;100256.02;108508;1280;22005;-83
2022/01/27 12:15:05;;;;;;;33.40;25.80;;;;;;;2.48;75.45;100257.77;108445;1280;22053;-83
2022/01/27 12:17:42;;;;;;;33.20;26.60;;;;;;;2.43;75.37;100251.85;108663;1280;21998;-82
2022/01/27 12:20:36;;;;;;;35.30;24.30;;;;;;;2.38;75.38;100250.64;108472;1282;22005;-83
2022/01/27 12:23:24;;;;;;;32.40;25.60;;;;;;;2.29;75.28;100244.73;108748;1276;22768;-83
2022/01/27 12:26:04;;;;;;;36.80;26.90;;;;;;;2.22;75.42;100244.11;108618;1276;22005;-82
2022/01/27 12:28:45;;;;;;;34.80;29.20;;;;;;;2.18;75.59;100241.29;108971;1269;22001;-84
2022/01/27 12:31:16;;;;;;;35.90;31.30;;;;;;;2.13;75.49;100233.08;109444;1265;21978;-84
2022/01/27 12:33:49;;;;;;;37.90;30.30;;;;;;;2.11;75.64;100228.05;108991;1271;22124;-84
2022/01/27 12:36:22;;;;;;;41.90;34.00;;;;;;;2.09;75.69;100224.25;109123;1267;24026;-83
2022/01/27 12:38:52;;;;;;;32.40;28.70;;;;;;;2.06;75.86;100215.54;109093;1270;22081;-82
2022/01/27 12:41:22;;;;;;;40.20;33.00;;;;;;;2.02;75.84;100211.70;109170;1270;22874;-83
2022/01/27 12:43:52;;;;;;;36.70;30.60;;;;;;;2.00;76.02;100209.66;109200;1270;24660;-82
2022/01/27 12:46:22;;;;;;;40.50;32.10;;;;;;;1.96;75.99;100204.16;109188;1270;23095;-83
2022/01/27 12:48:53;;;;;;;34.20;28.40;;;;;;;1.95;76.07;100205.14;109254;1270;22001;-83
2022/01/27 12:52:01;;;;;;;36.70;31.60;;;;;;;1.95;76.38;100197.80;109006;1273;22008;-82
2022/01/27 12:54:36;;;;;;;36.40;31.20;;;;;;;1.95;76.39;100195.78;108681;1276;22093;-82
2022/01/27 12:57:09;;;;;;;32.70;26.60;;;;;;;1.94;76.48;100189.09;108732;1274;24420;-82
2022/01/27 12:59:43;;;;;;;31.10;26.00;;;;;;;1.91;76.49;100181.67;109078;1270;21994;-83
2022/01/27 13:02:13;;;;;;;34.20;28.70;;;;;;;1.90;76.50;100183.10;108749;1271;22091;-83
2022/01/27 13:04:46;;;;;;;31.40;26.40;;;;;;;1.88;76.59;100181.31;108775;1276;21995;-83
2022/01/27 13:07:19;;;;;;;28.20;24.90;;;;;;;1.83;76.47;100177.16;108614;1276;23646;-83
2022/01/27 13:09:58;;;;;;;32.60;27.70;;;;;;;1.78;76.45;100176.67;108953;1276;22104;-82
2022/01/27 13:12:38;;;;;;;33.40;28.00;;;;;;;1.79;76.85;100175.08;109045;1273;21964;-83
2022/01/27 13:15:37;;;;;;;33.80;29.60;;;;;;;1.81;77.03;100170.02;109054;1270;23740;-82
2022/01/27 13:18:23;;;;;;;37.50;32.00;;;;;;;1.82;77.07;100161.13;109063;1272;23841;-82
2022/01/27 13:20:56;;;;;;;43.90;37.10;;;;;;;1.79;77.08;100154.23;109104;1270;23089;-83
2022/01/27 13:23:33;;;;;;;36.90;32.90;;;;;;;1.78;77.12;100147.74;109024;1270;24395;-84
2022/01/27 13:26:16;;;;;;;36.40;32.60;;;;;;;1.78;77.24;100147.23;109219;1271;22005;-84
2022/01/27 13:28:50;;;;;;;34.20;30.40;;;;;;;1.82;77.56;100147.77;109084;1270;23625;-83
2022/01/27 13:31:20;;;;;;;33.80;28.80;;;;;;;1.89;77.66;100141.33;108999;1273;22011;-82
2022/01/27 13:33:52;;;;;;;36.10;30.70;;;;;;;1.92;77.53;100140.02;108568;1277;22066;-82
2022/01/27 13:36:25;;;;;;;34.10;30.20;;;;;;;1.96;77.61;100138.04;108695;1273;22163;-84
2022/01/27 13:41:43;;;;;;;32.50;28.20;;;;;;;1.95;77.45;100132.67;109028;1270;22368;-84
2022/01/27 13:44:19;;;;;;;41.20;31.70;;;;;;;1.95;77.56;100129.80;108966;1273;23739;-84
2022/01/27 13:46:59;;;;;;;37.40;29.50;;;;;;;1.95;77.60;100127.52;109020;1276;22032;-83
2022/01/27 13:49:34;;;;;;;33.40;26.90;;;;;;;1.93;77.46;100124.54;109107;1267;23598;-83
2022/01/27 13:52:12;;;;;;;36.10;30.30;;;;;;;1.91;77.57;100120.55;109469;1265;22176;-84
2022/01/27 13:54:44;;;;;;;38.50;31.30;;;;;;;1.89;77.75;100118.19;109615;1264;24280;-82
2022/01/27 13:57:32;;;;;;;35.60;29.10;;;;;;;1.89;77.78;100115.77;109878;1264;23633;-83
2022/01/27 14:00:12;;;;;;;36.30;29.00;;;;;;;1.90;77.81;100111.70;110096;1264;22001;-84
2022/01/27 14:02:45;;;;;;;36.60;29.80;;;;;;;1.93;78.06;100108.88;109869;1258;23015;-82
2022/01/27 14:05:21;;;;;;;51.50;42.70;;;;;;;1.97;78.11;100102.17;110344;1257;23644;-83
2022/01/27 14:07:57;;;;;;;34.40;30.60;;;;;;;2.00;78.06;100097.73;109937;1263;21979;-83
2022/01/27 14:10:42;;;;;;;35.40;29.30;;;;;;;2.02;78.05;100093.25;109874;1264;21980;-83
2022/01/27 14:13:27;;;;;;;34.10;28.80;;;;;;;2.03;78.02;100086.09;109373;1270;22102;-83
2022/01/27 14:16:00;;;;;;;51.50;43.10;;;;;;;2.02;78.06;100088.94;109058;1270;23852;-84
2022/01/27 14:18:42;;;;;;;51.90;45.50;;;;;;;2.04;78.17;100089.63;109210;1270;23593;-84
2022/01/27 14:21:26;;;;;;;38.40;32.70;;;;;;;2.08;78.26;100084.81;109299;1267;22001;-84
2022/01/27 14:24:21;;;;;;;33.30;29.50;;;;;;;2.08;78.19;100081.17;109289;1270;22080;-83
2022/01/27 14:27:04;;;;;;;32.10;25.70;;;;;;;2.08;78.27;100077.34;109182;1267;23660;-83
2022/01/27 14:29:40;;;;;;;29.40;24.40;;;;;;;2.07;78.21;100079.86;108957;1270;22201;-83
2022/01/27 14:32:10;;;;;;;31.30;26.80;;;;;;;2.05;78.32;100077.94;109462;1263;22006;-83
2022/01/27 14:34:43;;;;;;;28.70;24.40;;;;;;;2.06;78.44;100078.01;109668;1264;21986;-84
2022/01/27 14:37:23;;;;;;;31.30;25.10;;;;;;;2.08;78.53;100077.64;109738;1263;23007;-84
2022/01/27 14:40:23;;;;;;;;;;;;;;;;;;;;;
2022/01/27 14:42:59;;;;;;;33.20;24.50;;;;;;;2.10;78.68;100070.58;109058;1273;22439;-84
2022/01/27 14:45:31;;;;;;;29.70;24.00;;;;;;;2.10;78.66;100076.29;109120;1271;21991;-83
2022/01/27 14:48:04;;;;;;;34.20;26.30;;;;;;;2.14;78.81;100077.06;109052;1270;23607;-83
2022/01/27 14:50:38;;;;;;;47.80;37.40;;;;;;;2.18;78.89;100074.30;108969;1268;22515;-84
2022/01/27 14:53:13;;;;;;;58.50;45.10;;;;;;;2.22;78.90;100072.73;109403;1267;23606;-82
2022/01/27 14:55:44;;;;;;;51.70;40.40;;;;;;;2.26;78.85;100070.86;109295;1270;21989;-82
2022/01/27 14:58:13;;;;;;;39.70;35.40;;;;;;;2.27;78.75;100069.38;109473;1263;22131;-82
2022/01/27 15:00:45;;;;;;;32.20;27.00;;;;;;;2.27;78.77;100065.58;110021;1257;22760;-82